createdAt,value
2017-09-02T00:00:59.245Z,100768
2017-09-02T00:01:58.672Z,100776
2017-09-02T00:02:57.902Z,100771
2017-09-02T00:03:57.833Z,100775
2017-09-02T00:04:59.417Z,100775
2017-09-02T00:05:57.794Z,100778
2017-09-02T00:06:57.903Z,100775
2017-09-02T00:07:59.501Z,100769
2017-09-02T00:08:58.196Z,100767
2017-09-02T00:09:58.095Z,100770
2017-09-02T00:10:58.010Z,100770
2017-09-02T00:11:58.121Z,100771
2017-09-02T00:12:59.119Z,100775
2017-09-02T00:13:59.893Z,100774
2017-09-02T00:14:58.549Z,100775
2017-09-02T00:16:00.072Z,100772
2017-09-02T00:16:58.337Z,100773
2017-09-02T00:17:58.379Z,100771
2017-09-02T00:18:58.380Z,100775
2017-09-02T00:19:59.451Z,100773
2017-09-02T00:20:59.782Z,100775
2017-09-02T00:21:59.545Z,100770
2017-09-02T00:22:59.670Z,100777
2017-09-02T00:24:00.371Z,100774
2017-09-02T00:25:00.498Z,100775
2017-09-02T00:25:59.699Z,100781
2017-09-02T00:26:59.035Z,100781
2017-09-02T00:28:00.549Z,100775
2017-09-02T00:28:58.837Z,100782
2017-09-02T00:29:59.032Z,100781
2017-09-02T00:30:59.050Z,100780
2017-09-02T00:32:00.080Z,100775
2017-09-02T00:32:59.398Z,100781
2017-09-02T00:33:59.059Z,100779
2017-09-02T00:34:59.163Z,100779
2017-09-02T00:36:00.084Z,100781
2017-09-02T00:37:00.997Z,100778
2017-09-02T00:38:01.069Z,100777
2017-09-02T00:38:59.711Z,100779
2017-09-02T00:40:00.354Z,100775
2017-09-02T00:40:59.557Z,100777
2017-09-02T00:42:00.591Z,100777
2017-09-02T00:42:59.528Z,100778
2017-09-02T00:44:01.286Z,100777
2017-09-02T00:45:01.554Z,100771
2017-09-02T00:46:00.695Z,100775
2017-09-02T00:46:59.714Z,100775
2017-09-02T00:48:01.412Z,100773
2017-09-02T00:49:01.578Z,100769
2017-09-02T00:50:01.582Z,100772
2017-09-02T00:51:00.228Z,100772
2017-09-02T00:52:00.821Z,100774
2017-09-02T00:53:01.011Z,100771
2017-09-02T00:54:01.812Z,100771
2017-09-02T00:55:00.226Z,100771
2017-09-02T00:56:00.187Z,100769
2017-09-02T00:57:01.501Z,100765
2017-09-02T00:58:00.316Z,100770
2017-09-02T00:59:01.077Z,100767
2017-09-02T01:00:00.687Z,100771
2017-09-02T01:01:02.466Z,100774
2017-09-02T01:02:00.857Z,100774
2017-09-02T01:03:02.865Z,100774
2017-09-02T01:04:00.967Z,100775
2017-09-02T01:05:00.915Z,100774
2017-09-02T01:06:00.940Z,100773
2017-09-02T01:07:02.158Z,100773
2017-09-02T01:08:02.194Z,100774
2017-09-02T01:09:02.546Z,100774
2017-09-02T01:10:00.933Z,100769
2017-09-02T01:11:02.086Z,100772
2017-09-02T01:12:02.005Z,100771
2017-09-02T01:13:02.839Z,100771
2017-09-02T01:14:02.839Z,100774
2017-09-02T01:15:01.613Z,100775
2017-09-02T01:16:01.304Z,100771
2017-09-02T01:17:01.331Z,100775
2017-09-02T01:18:01.349Z,100776
2017-09-02T01:19:01.366Z,100776
2017-09-02T01:20:01.510Z,100776
2017-09-02T01:21:02.671Z,100775
2017-09-02T01:22:01.522Z,100770
2017-09-02T01:23:02.556Z,100773
2017-09-02T01:24:02.701Z,100772
2017-09-02T01:25:01.723Z,100771
2017-09-02T01:26:03.138Z,100768
2017-09-02T01:27:02.878Z,100767
2017-09-02T01:28:03.637Z,100770
2017-09-02T01:29:03.631Z,100770
2017-09-02T01:30:03.712Z,100773
2017-09-02T01:31:02.121Z,100772
2017-09-02T01:32:04.198Z,100772
2017-09-02T01:33:04.007Z,100772
2017-09-02T01:34:02.414Z,100773
2017-09-02T01:35:02.453Z,100778
2017-09-02T01:36:02.530Z,100776
2017-09-02T01:37:03.530Z,100771
2017-09-02T01:38:02.585Z,100775
2017-09-02T01:39:04.251Z,100772
2017-09-02T01:40:02.663Z,100772
2017-09-02T01:41:02.774Z,100770
2017-09-02T01:42:02.866Z,100770
2017-09-02T01:43:04.488Z,100769
2017-09-02T01:44:02.986Z,100769
2017-09-02T01:45:04.016Z,100769
2017-09-02T01:46:04.780Z,100771
2017-09-02T01:47:03.129Z,100772
2017-09-02T01:48:03.186Z,100769
2017-09-02T01:49:03.119Z,100774
2017-09-02T01:50:04.831Z,100770
2017-09-02T01:51:05.005Z,100765
2017-09-02T01:52:04.350Z,100769
2017-09-02T01:53:03.427Z,100767
2017-09-02T01:54:03.356Z,100771
2017-09-02T01:55:05.080Z,100763
2017-09-02T01:56:05.068Z,100770
2017-09-02T01:57:05.257Z,100770
2017-09-02T01:58:03.686Z,100773
2017-09-02T01:59:03.679Z,100765
2017-09-02T02:00:03.653Z,100773
2017-09-02T02:01:05.416Z,100773
2017-09-02T02:02:04.699Z,100777
2017-09-02T02:03:05.505Z,100765
2017-09-02T02:04:04.912Z,100775
2017-09-02T02:05:04.088Z,100778
2017-09-02T02:06:05.040Z,100777
2017-09-02T02:07:04.079Z,100776
2017-09-02T02:08:04.289Z,100774
2017-09-02T02:09:04.390Z,100772
2017-09-02T02:10:06.187Z,100770
2017-09-02T02:11:05.496Z,100775
2017-09-02T02:12:04.513Z,100771
2017-09-02T02:13:04.591Z,100767
2017-09-02T02:14:04.748Z,100765
2017-09-02T02:15:06.509Z,100768
2017-09-02T02:16:05.906Z,100763
2017-09-02T02:17:06.602Z,100765
2017-09-02T02:18:08.347Z,100762
2017-09-02T02:19:06.677Z,100758
2017-09-02T02:20:05.160Z,100755
2017-09-02T02:21:06.657Z,100751
2017-09-02T02:22:06.662Z,100756
2017-09-02T02:23:05.852Z,100752
2017-09-02T02:24:06.122Z,100755
2017-09-02T02:25:05.332Z,100752
2017-09-02T02:26:07.021Z,100752
2017-09-02T02:27:06.254Z,100744
2017-09-02T02:28:05.468Z,100749
2017-09-02T02:29:06.387Z,100738
2017-09-02T02:30:06.669Z,100748
2017-09-02T02:31:05.446Z,100745
2017-09-02T02:32:06.649Z,100742
2017-09-02T02:33:07.334Z,100739
2017-09-02T02:34:06.758Z,100743
2017-09-02T02:35:06.732Z,100737
2017-09-02T02:36:07.032Z,100740
2017-09-02T02:37:05.971Z,100739
2017-09-02T02:38:07.619Z,100736
2017-09-02T02:39:07.628Z,100728
2017-09-02T02:40:06.977Z,100735
2017-09-02T02:41:06.071Z,100732
2017-09-02T02:42:07.317Z,100727
2017-09-02T02:43:07.705Z,100730
2017-09-02T02:44:06.116Z,100727
2017-09-02T02:45:07.857Z,100730
2017-09-02T02:46:06.374Z,100728
2017-09-02T02:47:06.304Z,100730
2017-09-02T02:48:06.686Z,100731
2017-09-02T02:49:08.030Z,100723
2017-09-02T02:50:06.403Z,100730
2017-09-02T02:51:07.612Z,100730
2017-09-02T02:52:06.663Z,100733
2017-09-02T02:53:08.029Z,100731
2017-09-02T02:54:06.999Z,100730
2017-09-02T02:55:08.399Z,100728
2017-09-02T02:56:08.388Z,100728
2017-09-02T02:57:06.781Z,100723
2017-09-02T02:58:06.776Z,100718
2017-09-02T02:59:06.774Z,100719
2017-09-02T03:00:07.020Z,100715
2017-09-02T03:01:08.967Z,100714
2017-09-02T03:02:08.640Z,100714
2017-09-02T03:03:06.961Z,100714
2017-09-02T03:04:08.580Z,100711
2017-09-02T03:05:07.097Z,100712
2017-09-02T03:06:09.009Z,100710
2017-09-02T03:07:07.107Z,100709
2017-09-02T03:08:07.155Z,100710
2017-09-02T03:09:07.214Z,100710
2017-09-02T03:10:08.984Z,100713
2017-09-02T03:11:08.464Z,100716
2017-09-02T03:12:07.741Z,100718
2017-09-02T03:13:07.590Z,100718
2017-09-02T03:14:07.558Z,100713
2017-09-02T03:15:09.306Z,100714
2017-09-02T03:16:09.478Z,100713
2017-09-02T03:17:07.846Z,100712
2017-09-02T03:18:08.127Z,100715
2017-09-02T03:19:09.669Z,100714
2017-09-02T03:20:09.620Z,100712
2017-09-02T03:21:08.970Z,100711
2017-09-02T03:22:08.199Z,100710
2017-09-02T03:23:08.199Z,100713
2017-09-02T03:24:10.188Z,100714
2017-09-02T03:25:08.214Z,100714
2017-09-02T03:26:09.954Z,100709
2017-09-02T03:27:10.023Z,100708
2017-09-02T03:28:10.210Z,100707
2017-09-02T03:29:10.251Z,100712
2017-09-02T03:30:08.833Z,100713
2017-09-02T03:31:10.307Z,100712
2017-09-02T03:32:08.717Z,100717
2017-09-02T03:33:08.711Z,100715
2017-09-02T03:34:08.791Z,100716
2017-09-02T03:35:08.817Z,100712
2017-09-02T03:36:09.086Z,100718
2017-09-02T03:37:08.850Z,100717
2017-09-02T03:38:08.936Z,100724
2017-09-02T03:39:09.962Z,100719
2017-09-02T03:40:09.159Z,100720
2017-09-02T03:41:10.965Z,100720
2017-09-02T03:42:09.533Z,100726
2017-09-02T03:43:11.728Z,100726
2017-09-02T03:44:09.343Z,100722
2017-09-02T03:45:10.037Z,100724
2017-09-02T03:46:11.242Z,100729
2017-09-02T03:47:09.475Z,100723
2017-09-02T03:48:09.780Z,100718
2017-09-02T03:49:11.388Z,100721
2017-09-02T03:50:09.695Z,100719
2017-09-02T03:51:09.705Z,100724
2017-09-02T03:52:11.463Z,100722
2017-09-02T03:53:11.533Z,100722
2017-09-02T03:54:10.259Z,100721
2017-09-02T03:55:09.910Z,100721
2017-09-02T03:56:11.780Z,100724
2017-09-02T03:57:10.044Z,100723
2017-09-02T03:58:10.157Z,100721
2017-09-02T03:59:10.231Z,100720
2017-09-02T04:00:12.336Z,100724
2017-09-02T04:01:12.018Z,100719
2017-09-02T04:03:12.049Z,100722
2017-09-02T04:04:10.402Z,100718
2017-09-02T04:05:10.557Z,100722
2017-09-02T04:06:11.818Z,100718
2017-09-02T04:07:10.489Z,100721
2017-09-02T04:08:10.551Z,100717
2017-09-02T04:09:10.726Z,100711
2017-09-02T04:10:11.775Z,100715
2017-09-02T04:11:12.470Z,100716
2017-09-02T04:12:12.539Z,100721
2017-09-02T04:13:12.689Z,100717
2017-09-02T04:14:11.955Z,100710
2017-09-02T04:15:11.096Z,100716
2017-09-02T04:16:12.753Z,100714
2017-09-02T04:17:11.128Z,100715
2017-09-02T04:18:12.907Z,100718
2017-09-02T04:19:12.943Z,100716
2017-09-02T04:20:11.231Z,100715
2017-09-02T04:21:12.948Z,100713
2017-09-02T04:22:13.078Z,100713
2017-09-02T04:23:12.265Z,100719
2017-09-02T04:24:11.383Z,100716
2017-09-02T04:25:12.427Z,100719
2017-09-02T04:26:12.426Z,100713
2017-09-02T04:27:11.523Z,100712
2017-09-02T04:28:12.571Z,100716
2017-09-02T04:29:13.433Z,100715
2017-09-02T04:30:11.750Z,100715
2017-09-02T04:31:13.510Z,100714
2017-09-02T04:32:12.758Z,100714
2017-09-02T04:33:11.791Z,100716
2017-09-02T04:34:12.022Z,100716
2017-09-02T04:35:12.026Z,100717
2017-09-02T04:36:13.666Z,100716
2017-09-02T04:37:12.142Z,100721
2017-09-02T04:38:12.110Z,100718
2017-09-02T04:39:12.302Z,100715
2017-09-02T04:40:13.985Z,100723
2017-09-02T04:41:13.953Z,100721
2017-09-02T04:42:12.331Z,100722
2017-09-02T04:43:12.454Z,100726
2017-09-02T04:44:12.420Z,100725
2017-09-02T04:45:14.236Z,100724
2017-09-02T04:46:13.596Z,100723
2017-09-02T04:47:12.564Z,100723
2017-09-02T04:48:12.731Z,100727
2017-09-02T04:49:12.831Z,100732
2017-09-02T04:50:12.899Z,100727
2017-09-02T04:51:14.509Z,100732
2017-09-02T04:52:12.947Z,100733
2017-09-02T04:53:12.899Z,100733
2017-09-02T04:54:12.983Z,100731
2017-09-02T04:55:13.005Z,100733
2017-09-02T04:56:13.181Z,100729
2017-09-02T04:57:13.233Z,100731
2017-09-02T04:58:14.178Z,100730
2017-09-02T04:59:13.351Z,100732
2017-09-02T05:00:14.230Z,100725
2017-09-02T05:01:15.023Z,100729
2017-09-02T05:02:14.451Z,100727
2017-09-02T05:03:15.172Z,100732
2017-09-02T05:04:13.481Z,100729
2017-09-02T05:05:13.484Z,100728
2017-09-02T05:06:15.170Z,100730
2017-09-02T05:07:14.514Z,100730
2017-09-02T05:08:14.610Z,100729
2017-09-02T05:09:15.307Z,100726
2017-09-02T05:10:15.479Z,100729
2017-09-02T05:11:14.727Z,100727
2017-09-02T05:12:14.780Z,100727
2017-09-02T05:13:13.877Z,100727
2017-09-02T05:14:14.052Z,100727
2017-09-02T05:15:13.998Z,100725
2017-09-02T05:16:14.038Z,100722
2017-09-02T05:17:15.182Z,100724
2017-09-02T05:18:15.813Z,100725
2017-09-02T05:19:14.189Z,100723
2017-09-02T05:20:14.270Z,100720
2017-09-02T05:21:14.396Z,100725
2017-09-02T05:22:15.270Z,100722
2017-09-02T05:23:16.152Z,100719
2017-09-02T05:24:14.522Z,100723
2017-09-02T05:25:15.584Z,100714
2017-09-02T05:26:16.291Z,100723
2017-09-02T05:27:14.732Z,100721
2017-09-02T05:28:15.650Z,100721
2017-09-02T05:29:14.737Z,100716
2017-09-02T05:30:14.895Z,100714
2017-09-02T05:31:14.947Z,100722
2017-09-02T05:32:14.961Z,100721
2017-09-02T05:33:15.015Z,100720
2017-09-02T05:34:16.732Z,100725
2017-09-02T05:35:15.195Z,100722
2017-09-02T05:36:15.259Z,100725
2017-09-02T05:37:16.842Z,100722
2017-09-02T05:38:15.189Z,100722
2017-09-02T05:39:15.380Z,100721
2017-09-02T05:40:15.432Z,100719
2017-09-02T05:41:16.366Z,100725
2017-09-02T05:42:17.253Z,100724
2017-09-02T05:43:16.624Z,100724
2017-09-02T05:44:17.333Z,100730
2017-09-02T05:45:15.750Z,100724
2017-09-02T05:46:17.333Z,100730
2017-09-02T05:47:16.668Z,100730
2017-09-02T05:48:15.737Z,100731
2017-09-02T05:49:15.751Z,100734
2017-09-02T05:50:15.873Z,100736
2017-09-02T05:51:17.561Z,100735
2017-09-02T05:52:15.971Z,100737
2017-09-02T05:53:17.565Z,100737
2017-09-02T05:54:15.946Z,100734
2017-09-02T05:55:15.960Z,100736
2017-09-02T05:56:16.121Z,100735
2017-09-02T05:57:17.162Z,100738
2017-09-02T05:58:16.187Z,100732
2017-09-02T05:59:16.172Z,100733
2017-09-02T06:00:16.225Z,100737
2017-09-02T06:01:16.415Z,100730
2017-09-02T06:02:17.338Z,100736
2017-09-02T06:03:17.384Z,100737
2017-09-02T06:04:16.465Z,100732
2017-09-02T06:05:16.555Z,100733
2017-09-02T06:06:18.408Z,100734
2017-09-02T06:07:16.806Z,100730
2017-09-02T06:08:16.887Z,100734
2017-09-02T06:09:16.861Z,100734
2017-09-02T06:10:17.819Z,100733
2017-09-02T06:11:17.917Z,100734
2017-09-02T06:12:18.814Z,100731
2017-09-02T06:13:17.202Z,100730
2017-09-02T06:14:17.164Z,100733
2017-09-02T06:15:18.323Z,100732
2017-09-02T06:16:18.361Z,100731
2017-09-02T06:17:17.463Z,100731
2017-09-02T06:18:18.601Z,100727
2017-09-02T06:19:17.429Z,100729
2017-09-02T06:20:17.492Z,100728
2017-09-02T06:21:18.607Z,100734
2017-09-02T06:22:19.278Z,100728
2017-09-02T06:23:17.760Z,100727
2017-09-02T06:24:17.714Z,100732
2017-09-02T06:25:18.855Z,100736
2017-09-02T06:26:18.797Z,100732
2017-09-02T06:27:18.956Z,100733
2017-09-02T06:28:18.938Z,100733
2017-09-02T06:29:19.854Z,100734
2017-09-02T06:30:18.120Z,100738
2017-09-02T06:31:18.218Z,100734
2017-09-02T06:32:18.197Z,100735
2017-09-02T06:33:20.012Z,100738
2017-09-02T06:34:18.840Z,100738
2017-09-02T06:35:20.184Z,100735
2017-09-02T06:36:20.244Z,100734
2017-09-02T06:37:19.473Z,100735
2017-09-02T06:38:20.347Z,100735
2017-09-02T06:39:20.255Z,100739
2017-09-02T06:40:20.361Z,100739
2017-09-02T06:41:19.665Z,100739
2017-09-02T06:42:18.782Z,100741
2017-09-02T06:43:18.983Z,100742
2017-09-02T06:44:19.931Z,100742
2017-09-02T06:45:20.609Z,100741
2017-09-02T06:46:20.846Z,100746
2017-09-02T06:47:19.160Z,100745
2017-09-02T06:48:19.751Z,100746
2017-09-02T06:49:20.133Z,100745
2017-09-02T06:50:19.213Z,100747
2017-09-02T06:51:20.176Z,100747
2017-09-02T06:52:20.944Z,100751
2017-09-02T06:53:19.426Z,100750
2017-09-02T06:54:20.337Z,100749
2017-09-02T06:55:21.111Z,100748
2017-09-02T06:56:19.620Z,100751
2017-09-02T06:57:19.612Z,100752
2017-09-02T06:58:20.577Z,100753
2017-09-02T06:59:19.695Z,100752
2017-09-02T07:00:21.571Z,100750
2017-09-02T07:01:19.869Z,100753
2017-09-02T07:02:21.681Z,100756
2017-09-02T07:03:19.962Z,100751
2017-09-02T07:04:20.085Z,100754
2017-09-02T07:05:21.025Z,100753
2017-09-02T07:06:20.180Z,100755
2017-09-02T07:07:21.956Z,100756
2017-09-02T07:08:20.270Z,100757
2017-09-02T07:09:20.435Z,100754
2017-09-02T07:10:21.407Z,100753
2017-09-02T07:11:21.400Z,100754
2017-09-02T07:12:20.567Z,100748
2017-09-02T07:13:21.437Z,100756
2017-09-02T07:14:21.519Z,100759
2017-09-02T07:15:20.737Z,100757
2017-09-02T07:16:22.410Z,100759
2017-09-02T07:17:22.045Z,100759
2017-09-02T07:18:22.649Z,100756
2017-09-02T07:19:21.911Z,100760
2017-09-02T07:20:21.074Z,100766
2017-09-02T07:21:21.087Z,100765
2017-09-02T07:22:22.802Z,100765
2017-09-02T07:23:22.505Z,100769
2017-09-02T07:24:22.278Z,100767
2017-09-02T07:25:23.008Z,100771
2017-09-02T07:26:22.998Z,100769
2017-09-02T07:27:22.421Z,100775
2017-09-02T07:28:21.375Z,100780
2017-09-02T07:29:21.819Z,100780
2017-09-02T07:30:23.330Z,100776
2017-09-02T07:31:23.310Z,100777
2017-09-02T07:32:22.692Z,100775
2017-09-02T07:33:23.347Z,100775
2017-09-02T07:34:21.864Z,100773
2017-09-02T07:35:23.071Z,100775
2017-09-02T07:36:22.016Z,100773
2017-09-02T07:37:23.559Z,100776
2017-09-02T07:38:23.812Z,100772
2017-09-02T07:39:22.149Z,100775
2017-09-02T07:40:23.014Z,100771
2017-09-02T07:41:22.442Z,100771
2017-09-02T07:42:23.161Z,100779
2017-09-02T07:43:22.379Z,100775
2017-09-02T07:44:23.340Z,100780
2017-09-02T07:45:22.300Z,100786
2017-09-02T07:46:23.343Z,100789
2017-09-02T07:47:24.359Z,100787
2017-09-02T07:48:22.427Z,100787
2017-09-02T07:49:22.498Z,100788
2017-09-02T07:50:23.544Z,100790
2017-09-02T07:51:22.733Z,100787
2017-09-02T07:52:22.817Z,100789
2017-09-02T07:53:24.709Z,100789
2017-09-02T07:54:22.850Z,100789
2017-09-02T07:55:24.591Z,100790
2017-09-02T07:56:22.977Z,100793
2017-09-02T07:57:24.102Z,100787
2017-09-02T07:58:23.105Z,100795
2017-09-02T07:59:23.592Z,100793
2017-09-02T08:00:24.788Z,100793
2017-09-02T08:01:23.269Z,100790
2017-09-02T08:02:23.349Z,100792
2017-09-02T08:03:24.425Z,100795
2017-09-02T08:04:25.144Z,100801
2017-09-02T08:05:25.393Z,100796
2017-09-02T08:06:23.607Z,100800
2017-09-02T08:07:23.616Z,100797
2017-09-02T08:08:25.313Z,100797
2017-09-02T08:09:23.667Z,100793
2017-09-02T08:10:24.772Z,100799
2017-09-02T08:11:24.092Z,100798
2017-09-02T08:12:24.832Z,100800
2017-09-02T08:13:23.854Z,100798
2017-09-02T08:14:23.994Z,100797
2017-09-02T08:15:24.042Z,100792
2017-09-02T08:16:24.126Z,100795
2017-09-02T08:17:25.281Z,100799
2017-09-02T08:18:25.178Z,100800
2017-09-02T08:19:25.216Z,100796
2017-09-02T08:20:25.906Z,100792
2017-09-02T08:21:24.283Z,100791
2017-09-02T08:22:26.134Z,100794
2017-09-02T08:23:26.385Z,100787
2017-09-02T08:24:24.460Z,100787
2017-09-02T08:25:24.646Z,100788
2017-09-02T08:26:25.540Z,100789
2017-09-02T08:27:26.423Z,100794
2017-09-02T08:28:25.809Z,100794
2017-09-02T08:29:25.171Z,100793
2017-09-02T08:30:26.549Z,100796
2017-09-02T08:31:26.608Z,100793
2017-09-02T08:32:26.553Z,100794
2017-09-02T08:33:24.962Z,100792
2017-09-02T08:34:26.714Z,100789
2017-09-02T08:35:25.389Z,100795
2017-09-02T08:36:25.183Z,100795
2017-09-02T08:37:26.156Z,100798
2017-09-02T08:38:25.209Z,100799
2017-09-02T08:39:25.183Z,100800
2017-09-02T08:40:25.326Z,100801
2017-09-02T08:41:25.580Z,100797
2017-09-02T08:42:27.053Z,100798
2017-09-02T08:43:27.100Z,100797
2017-09-02T08:44:27.326Z,100797
2017-09-02T08:45:27.320Z,100796
2017-09-02T08:46:26.721Z,100793
2017-09-02T08:47:27.721Z,100801
2017-09-02T08:48:25.736Z,100800
2017-09-02T08:49:27.571Z,100803
2017-09-02T08:50:27.449Z,100802
2017-09-02T08:51:25.812Z,100802
2017-09-02T08:52:25.828Z,100801
2017-09-02T08:53:26.271Z,100803
2017-09-02T08:54:25.966Z,100807
2017-09-02T08:55:25.989Z,100805
2017-09-02T08:56:27.122Z,100807
2017-09-02T08:57:27.731Z,100805
2017-09-02T08:58:27.779Z,100807
2017-09-02T08:59:27.402Z,100806
2017-09-02T09:00:27.959Z,100807
2017-09-02T09:01:28.137Z,100800
2017-09-02T09:02:27.404Z,100806
2017-09-02T09:03:28.160Z,100808
2017-09-02T09:04:27.525Z,100808
2017-09-02T09:05:27.913Z,100809
2017-09-02T09:06:28.336Z,100810
2017-09-02T09:07:26.566Z,100807
2017-09-02T09:08:28.434Z,100809
2017-09-02T09:09:28.336Z,100809
2017-09-02T09:10:28.519Z,100805
2017-09-02T09:11:27.112Z,100809
2017-09-02T09:12:27.705Z,100809
2017-09-02T09:13:28.703Z,100803
2017-09-02T09:14:27.065Z,100806
2017-09-02T09:15:28.001Z,100805
2017-09-02T09:16:28.875Z,100806
2017-09-02T09:17:27.529Z,100805
2017-09-02T09:18:28.830Z,100805
2017-09-02T09:19:27.337Z,100802
2017-09-02T09:20:27.281Z,100802
2017-09-02T09:21:28.325Z,100803
2017-09-02T09:22:28.512Z,100800
2017-09-02T09:23:27.826Z,100797
2017-09-02T09:24:27.520Z,100802
2017-09-02T09:25:27.634Z,100801
2017-09-02T09:26:29.356Z,100804
2017-09-02T09:27:28.749Z,100805
2017-09-02T09:28:27.799Z,100804
2017-09-02T09:29:29.754Z,100803
2017-09-02T09:30:28.864Z,100803
2017-09-02T09:31:29.613Z,100805
2017-09-02T09:32:27.939Z,100803
2017-09-02T09:33:28.016Z,100804
2017-09-02T09:34:28.899Z,100805
2017-09-02T09:35:28.409Z,100805
2017-09-02T09:36:28.072Z,100805
2017-09-02T09:37:29.163Z,100805
2017-09-02T09:38:29.217Z,100804
2017-09-02T09:39:29.223Z,100798
2017-09-02T09:40:28.183Z,100805
2017-09-02T09:41:28.494Z,100803
2017-09-02T09:42:29.961Z,100802
2017-09-02T09:43:28.462Z,100796
2017-09-02T09:44:28.495Z,100796
2017-09-02T09:45:28.502Z,100791
2017-09-02T09:46:29.504Z,100795
2017-09-02T09:47:28.694Z,100803
2017-09-02T09:48:28.467Z,100801
2017-09-02T09:49:28.569Z,100802
2017-09-02T09:50:29.591Z,100797
2017-09-02T09:51:28.692Z,100799
2017-09-02T09:52:28.790Z,100802
2017-09-02T09:53:28.992Z,100806
2017-09-02T09:54:28.794Z,100800
2017-09-02T09:55:30.621Z,100799
2017-09-02T09:56:30.600Z,100800
2017-09-02T09:57:30.709Z,100797
2017-09-02T09:58:29.933Z,100800
2017-09-02T09:59:30.967Z,100800
2017-09-02T10:00:30.718Z,100801
2017-09-02T10:01:29.202Z,100799
2017-09-02T10:02:29.216Z,100798
2017-09-02T10:03:29.337Z,100799
2017-09-02T10:04:31.066Z,100800
2017-09-02T10:05:30.571Z,100798
2017-09-02T10:06:31.152Z,100796
2017-09-02T10:07:29.597Z,100794
2017-09-02T10:08:29.454Z,100795
2017-09-02T10:09:30.539Z,100792
2017-09-02T10:10:29.524Z,100792
2017-09-02T10:11:29.827Z,100794
2017-09-02T10:12:29.567Z,100794
2017-09-02T10:13:29.593Z,100793
2017-09-02T10:14:29.680Z,100785
2017-09-02T10:15:29.836Z,100792
2017-09-02T10:16:29.772Z,100790
2017-09-02T10:17:30.998Z,100787
2017-09-02T10:18:31.611Z,100784
2017-09-02T10:19:29.910Z,100780
2017-09-02T10:20:30.025Z,100783
2017-09-02T10:21:29.946Z,100780
2017-09-02T10:22:30.997Z,100779
2017-09-02T10:23:32.038Z,100778
2017-09-02T10:24:31.859Z,100773
2017-09-02T10:25:31.855Z,100774
2017-09-02T10:26:30.196Z,100774
2017-09-02T10:27:31.981Z,100772
2017-09-02T10:28:32.101Z,100773
2017-09-02T10:29:30.653Z,100771
2017-09-02T10:30:32.061Z,100770
2017-09-02T10:31:30.549Z,100767
2017-09-02T10:32:31.503Z,100765
2017-09-02T10:33:30.683Z,100765
2017-09-02T10:34:32.258Z,100763
2017-09-02T10:35:32.547Z,100764
2017-09-02T10:36:30.788Z,100768
2017-09-02T10:37:32.357Z,100765
2017-09-02T10:38:30.700Z,100758
2017-09-02T10:39:30.793Z,100765
2017-09-02T10:40:30.845Z,100767
2017-09-02T10:41:32.830Z,100760
2017-09-02T10:42:31.073Z,100759
2017-09-02T10:43:31.995Z,100755
2017-09-02T10:44:32.888Z,100755
2017-09-02T10:45:32.140Z,100754
2017-09-02T10:46:31.373Z,100750
2017-09-02T10:47:31.684Z,100755
2017-09-02T10:48:31.472Z,100758
2017-09-02T10:49:31.490Z,100758
2017-09-02T10:50:33.136Z,100756
2017-09-02T10:51:31.507Z,100756
2017-09-02T10:52:33.309Z,100755
2017-09-02T10:53:31.957Z,100751
2017-09-02T10:54:31.665Z,100755
2017-09-02T10:55:31.798Z,100750
2017-09-02T10:56:33.444Z,100746
2017-09-02T10:57:32.470Z,100739
2017-09-02T10:58:32.001Z,100743
2017-09-02T10:59:32.167Z,100747
2017-09-02T11:00:33.066Z,100745
2017-09-02T11:01:32.235Z,100746
2017-09-02T11:02:33.789Z,100746
2017-09-02T11:03:32.273Z,100742
2017-09-02T11:04:33.184Z,100742
2017-09-02T11:05:32.694Z,100740
2017-09-02T11:06:33.480Z,100739
2017-09-02T11:07:33.379Z,100733
2017-09-02T11:08:32.570Z,100736
2017-09-02T11:09:34.246Z,100734
2017-09-02T11:10:34.346Z,100731
2017-09-02T11:11:33.020Z,100733
2017-09-02T11:12:32.773Z,100734
2017-09-02T11:13:33.813Z,100733
2017-09-02T11:14:34.583Z,100740
2017-09-02T11:15:32.866Z,100739
2017-09-02T11:16:32.973Z,100737
2017-09-02T11:17:35.828Z,100739
2017-09-02T11:18:34.726Z,100740
2017-09-02T11:19:34.806Z,100739
2017-09-02T11:20:33.286Z,100738
2017-09-02T11:21:33.248Z,100739
2017-09-02T11:22:36.928Z,100738
2017-09-02T11:23:34.658Z,100738
2017-09-02T11:24:33.468Z,100737
2017-09-02T11:25:35.079Z,100742
2017-09-02T11:26:33.554Z,100743
2017-09-02T11:27:35.335Z,100745
2017-09-02T11:28:34.694Z,100743
2017-09-02T11:29:35.000Z,100746
2017-09-02T11:30:33.750Z,100746
2017-09-02T11:31:33.853Z,100748
2017-09-02T11:32:35.607Z,100747
2017-09-02T11:33:33.927Z,100749
2017-09-02T11:34:34.016Z,100746
2017-09-02T11:35:35.164Z,100747
2017-09-02T11:36:34.111Z,100749
2017-09-02T11:37:34.045Z,100749
2017-09-02T11:38:34.079Z,100749
2017-09-02T11:39:35.764Z,100750
2017-09-02T11:40:34.269Z,100753
2017-09-02T11:41:36.309Z,100758
2017-09-02T11:42:34.403Z,100757
2017-09-02T11:43:36.056Z,100754
2017-09-02T11:44:34.494Z,100755
2017-09-02T11:45:34.433Z,100753
2017-09-02T11:46:34.458Z,100748
2017-09-02T11:47:34.866Z,100749
2017-09-02T11:48:34.583Z,100747
2017-09-02T11:49:35.725Z,100754
2017-09-02T11:50:36.417Z,100751
2017-09-02T11:51:34.858Z,100755
2017-09-02T11:52:36.682Z,100754
2017-09-02T11:53:35.247Z,100754
2017-09-02T11:54:36.779Z,100752
2017-09-02T11:55:35.101Z,100753
2017-09-02T11:56:36.777Z,100749
2017-09-02T11:57:35.227Z,100751
2017-09-02T11:58:35.306Z,100751
2017-09-02T11:59:35.650Z,100745
2017-09-02T12:00:35.384Z,100752
2017-09-02T12:01:36.325Z,100757
2017-09-02T12:02:35.516Z,100746
2017-09-02T12:03:37.160Z,100749
2017-09-02T12:04:35.526Z,100747
2017-09-02T12:05:37.797Z,100749
2017-09-02T12:06:35.675Z,100748
2017-09-02T12:07:36.804Z,100749
2017-09-02T12:08:35.807Z,100748
2017-09-02T12:09:36.846Z,100749
2017-09-02T12:10:37.650Z,100743
2017-09-02T12:11:37.340Z,100748
2017-09-02T12:12:36.664Z,100744
2017-09-02T12:13:36.082Z,100745
2017-09-02T12:14:37.831Z,100748
2017-09-02T12:15:36.176Z,100743
2017-09-02T12:16:36.185Z,100746
2017-09-02T12:17:37.534Z,100751
2017-09-02T12:18:36.372Z,100745
2017-09-02T12:19:36.381Z,100744
2017-09-02T12:20:36.412Z,100746
2017-09-02T12:21:36.408Z,100744
2017-09-02T12:22:36.452Z,100744
2017-09-02T12:23:36.886Z,100745
2017-09-02T12:24:36.637Z,100745
2017-09-02T12:25:37.491Z,100745
2017-09-02T12:26:36.693Z,100747
2017-09-02T12:27:37.695Z,100749
2017-09-02T12:28:39.603Z,100745
2017-09-02T12:29:38.665Z,100747
2017-09-02T12:30:36.884Z,100748